createdAt,value
2023-04-12T00:04:47.267Z,2.97
2023-04-12T00:19:46.987Z,2.67
2023-04-12T00:34:46.774Z,2.61
2023-04-12T00:49:46.618Z,2.52
2023-04-12T01:04:46.452Z,2.10
2023-04-12T01:19:46.354Z,1.65
2023-04-12T01:34:46.140Z,1.51
2023-04-12T01:49:45.976Z,1.28
2023-04-12T02:04:45.838Z,1.16
2023-04-12T02:19:45.709Z,0.90
2023-04-12T02:34:45.510Z,0.82
2023-04-12T02:49:45.372Z,0.57
2023-04-12T03:04:45.198Z,0.39
2023-04-12T03:19:45.306Z,0.15
2023-04-12T03:34:44.903Z,0.06
2023-04-12T03:49:47.780Z,-0.22
2023-04-12T04:04:44.613Z,-0.34
2023-04-12T04:19:44.464Z,-0.33
2023-04-12T04:34:44.327Z,-0.36
2023-04-12T04:49:44.155Z,-0.36
2023-04-12T05:04:44.019Z,-0.29
2023-04-12T05:19:43.920Z,-0.08
2023-04-12T05:34:43.730Z,0.75
2023-04-12T05:49:43.565Z,1.10
2023-04-12T06:04:50.711Z,2.06
2023-04-12T06:19:43.276Z,3.03
2023-04-12T06:34:43.115Z,4.08
2023-04-12T06:49:42.963Z,5.59
2023-04-12T07:04:42.766Z,8.51
2023-04-12T07:19:42.625Z,9.89
2023-04-12T07:34:42.554Z,11.50
2023-04-12T07:49:42.298Z,11.53
2023-04-12T08:04:42.123Z,11.47
2023-04-12T08:19:42.011Z,12.39
2023-04-12T08:34:43.657Z,11.94
2023-04-12T08:49:41.691Z,11.96
2023-04-12T09:04:41.574Z,12.95
2023-04-12T09:19:41.340Z,13.51
2023-04-12T09:34:41.166Z,13.62
2023-04-12T09:49:41.061Z,14.07
2023-04-12T10:04:40.919Z,14.32
2023-04-12T10:19:40.710Z,14.49
2023-04-12T10:34:40.518Z,14.88
2023-04-12T10:49:40.374Z,14.68
2023-04-12T11:04:40.275Z,15.08
2023-04-12T11:19:40.099Z,15.31
2023-04-12T11:34:39.855Z,15.11
2023-04-12T11:49:39.690Z,15.05
2023-04-12T12:04:39.778Z,15.78
2023-04-12T12:19:39.390Z,14.64
2023-04-12T12:34:39.221Z,14.74
2023-04-12T12:49:39.054Z,14.84
2023-04-12T13:04:38.975Z,14.65
2023-04-12T13:19:38.730Z,14.98
2023-04-12T13:34:38.562Z,15.28
2023-04-12T13:49:40.055Z,15.19
2023-04-12T14:04:38.339Z,15.15
2023-04-12T14:19:38.107Z,14.80
2023-04-12T14:34:37.946Z,14.52
2023-04-12T14:49:37.767Z,14.31
2023-04-12T15:04:37.838Z,14.16
2023-04-12T15:19:37.493Z,13.62
2023-04-12T15:34:37.270Z,12.66
2023-04-12T15:49:37.178Z,12.27
2023-04-12T16:04:37.102Z,11.89
2023-04-12T16:19:36.805Z,11.50
2023-04-12T16:34:36.664Z,11.36
2023-04-12T16:49:37.511Z,11.09
2023-04-12T17:04:36.541Z,11.02
2023-04-12T17:19:36.182Z,10.96
2023-04-12T17:34:36.010Z,10.96
2023-04-12T17:49:36.744Z,10.73
2023-04-12T18:04:37.059Z,10.62
2023-04-12T18:19:35.540Z,10.60
2023-04-12T18:34:35.462Z,10.70
2023-04-12T18:49:35.260Z,10.68
2023-04-12T19:04:35.035Z,10.71
2023-04-12T19:19:34.902Z,10.26
2023-04-12T19:34:34.695Z,10.06
2023-04-12T19:49:34.554Z,10.04
2023-04-12T20:04:34.531Z,10.00
2023-04-12T20:19:34.217Z,9.56
2023-04-12T20:34:34.052Z,9.49
2023-04-12T20:49:33.908Z,9.58
2023-04-12T21:04:33.823Z,9.46
2023-04-12T21:19:33.576Z,9.28
2023-04-12T21:34:33.427Z,8.97
2023-04-12T21:49:33.270Z,9.01
2023-04-12T22:04:34.131Z,8.94
2023-04-12T22:19:33.041Z,8.78
2023-04-12T22:34:32.810Z,8.86
2023-04-12T22:49:32.615Z,8.78
2023-04-12T23:04:32.507Z,8.72
2023-04-12T23:19:32.315Z,8.73
2023-04-12T23:34:32.131Z,8.66
2023-04-12T23:49:31.973Z,8.42
